createdAt,value
2017-08-08T00:01:02.814Z,16.68
2017-08-08T00:02:12.341Z,16.67
2017-08-08T00:03:21.548Z,16.58
2017-08-08T00:04:31.089Z,16.6
2017-08-08T00:05:40.299Z,16.57
2017-08-08T00:06:49.829Z,16.49
2017-08-08T00:07:59.681Z,16.58
2017-08-08T00:09:09.215Z,16.49
2017-08-08T00:10:18.426Z,16.5
2017-08-08T00:11:27.637Z,16.46
2017-08-08T00:12:37.489Z,16.46
2017-08-08T00:13:47.068Z,16.41
2017-08-08T00:14:56.276Z,16.41
2017-08-08T00:16:05.805Z,16.41
2017-08-08T00:17:15.334Z,16.33
2017-08-08T00:18:24.543Z,16.28
2017-08-08T00:19:34.502Z,16.33
2017-08-08T00:20:43.706Z,16.31
2017-08-08T00:21:53.237Z,16.3
2017-08-08T00:23:02.448Z,16.28
2017-08-08T00:24:11.990Z,16.25
2017-08-08T00:25:21.345Z,16.24
2017-08-08T00:26:31.204Z,16.31
2017-08-08T00:27:40.412Z,16.24
2017-08-08T00:28:49.944Z,16.27
2017-08-08T00:29:59.791Z,16.28
2017-08-08T00:31:09.054Z,16.23
2017-08-08T00:32:18.581Z,16.21
2017-08-08T00:33:28.112Z,16.24
2017-08-08T00:34:37.349Z,16.24
2017-08-08T00:35:46.886Z,16.08
2017-08-08T00:36:56.195Z,16.24
2017-08-08T00:38:05.723Z,16.2
2017-08-08T00:39:15.253Z,16.14
2017-08-08T00:40:24.783Z,16.17
2017-08-08T00:41:34.638Z,16.12
2017-08-08T00:42:43.944Z,16.17
2017-08-08T00:43:53.485Z,16.08
2017-08-08T00:45:03.335Z,16.05
2017-08-08T00:46:12.221Z,16.08
2017-08-08T00:47:21.750Z,16
2017-08-08T00:48:31.335Z,16.08
2017-08-08T00:49:40.865Z,16.05
2017-08-08T00:50:50.721Z,16.01
2017-08-08T00:52:00.254Z,16.02
2017-08-08T00:53:09.794Z,15.97
2017-08-08T00:54:20.006Z,16.04
2017-08-08T00:55:28.894Z,15.93
2017-08-08T00:56:38.106Z,15.94
2017-08-08T00:57:47.643Z,15.93
2017-08-08T00:58:57.174Z,15.94
2017-08-08T01:00:07.512Z,15.86
2017-08-08T01:01:17.367Z,15.8
2017-08-08T01:02:26.899Z,15.86
2017-08-08T01:03:35.780Z,15.86
2017-08-08T01:04:44.986Z,15.83
2017-08-08T01:05:54.550Z,15.78
2017-08-08T01:07:03.759Z,15.78
2017-08-08T01:08:13.615Z,15.84
2017-08-08T01:09:22.843Z,15.76
2017-08-08T01:10:32.052Z,15.82
2017-08-08T01:11:41.684Z,15.8
2017-08-08T01:12:50.587Z,15.76
2017-08-08T01:14:00.119Z,15.76
2017-08-08T01:15:09.338Z,15.67
2017-08-08T01:16:18.540Z,15.65
2017-08-08T01:17:28.085Z,15.64
2017-08-08T01:18:36.975Z,15.71
2017-08-08T01:19:46.536Z,15.74
2017-08-08T01:20:55.439Z,15.67
2017-08-08T01:22:05.290Z,15.71
2017-08-08T01:23:14.684Z,15.65
2017-08-08T01:24:24.216Z,15.62
2017-08-08T01:25:33.425Z,15.65
2017-08-08T01:26:42.964Z,15.62
2017-08-08T01:27:52.496Z,15.6
2017-08-08T01:29:02.603Z,15.6
2017-08-08T01:30:12.132Z,15.57
2017-08-08T01:31:21.672Z,15.54
2017-08-08T01:32:31.528Z,15.5
2017-08-08T01:33:41.383Z,15.51
2017-08-08T01:34:50.742Z,15.44
2017-08-08T01:36:00.274Z,15.38
2017-08-08T01:37:09.162Z,15.38
2017-08-08T01:38:18.691Z,15.39
2017-08-08T01:39:28.223Z,15.34
2017-08-08T01:40:38.425Z,15.36
2017-08-08T01:41:47.962Z,15.29
2017-08-08T01:42:57.494Z,15.29
2017-08-08T01:44:07.671Z,15.31
2017-08-08T01:45:16.553Z,15.28
2017-08-08T01:46:26.181Z,15.25
2017-08-08T01:47:35.064Z,15.25
2017-08-08T01:48:44.271Z,15.31
2017-08-08T01:49:53.486Z,15.32
2017-08-08T01:51:02.693Z,15.28
2017-08-08T01:52:12.055Z,15.28
2017-08-08T01:53:20.934Z,15.23
2017-08-08T01:54:30.464Z,15.36
2017-08-08T01:55:40.029Z,15.31
2017-08-08T01:56:49.239Z,15.29
2017-08-08T01:57:58.595Z,15.2
2017-08-08T01:59:08.125Z,15.35
2017-08-08T02:00:17.656Z,15.27
2017-08-08T02:01:26.866Z,15.27
2017-08-08T02:02:36.396Z,15.29
2017-08-08T02:03:45.700Z,15.25
2017-08-08T02:04:55.231Z,15.34
2017-08-08T02:06:04.438Z,15.27
2017-08-08T02:07:14.293Z,15.29
2017-08-08T02:08:23.504Z,15.29
2017-08-08T02:09:32.865Z,15.29
2017-08-08T02:10:42.401Z,15.29
2017-08-08T02:11:51.611Z,15.25
2017-08-08T02:13:00.827Z,15.28
2017-08-08T02:14:10.683Z,15.31
2017-08-08T02:15:20.137Z,15.25
2017-08-08T02:16:29.343Z,15.25
2017-08-08T02:17:38.549Z,15.34
2017-08-08T02:18:47.429Z,15.23
2017-08-08T02:19:57.281Z,15.2
2017-08-08T02:21:07.192Z,15.25
2017-08-08T02:22:16.403Z,15.31
2017-08-08T02:23:25.606Z,15.27
2017-08-08T02:24:34.808Z,15.29
2017-08-08T02:25:44.010Z,15.27
2017-08-08T02:26:53.195Z,15.25
2017-08-08T02:28:02.724Z,15.25
2017-08-08T02:29:11.929Z,15.2
2017-08-08T02:30:21.457Z,15.31
2017-08-08T02:31:30.665Z,15.29
2017-08-08T02:32:40.259Z,15.31
2017-08-08T02:33:49.143Z,15.28
2017-08-08T02:34:58.349Z,15.34
2017-08-08T02:36:07.900Z,15.23
2017-08-08T02:37:17.433Z,15.28
2017-08-08T02:38:27.485Z,15.39
2017-08-08T02:39:36.368Z,15.44
2017-08-08T02:40:45.901Z,15.43
2017-08-08T02:41:55.749Z,15.38
2017-08-08T02:43:05.291Z,15.34
2017-08-08T02:44:14.649Z,15.43
2017-08-08T02:45:23.592Z,15.41
2017-08-08T02:46:33.127Z,15.41
2017-08-08T02:47:43.320Z,15.39
2017-08-08T02:48:53.184Z,15.39
2017-08-08T02:50:03.197Z,15.38
2017-08-08T02:51:12.407Z,15.38
2017-08-08T02:52:22.261Z,15.38
2017-08-08T02:53:31.147Z,15.47
2017-08-08T02:54:40.038Z,15.38
2017-08-08T02:55:49.872Z,15.38
2017-08-08T02:56:59.401Z,15.41
2017-08-08T02:58:08.933Z,15.31
2017-08-08T02:59:18.139Z,15.41
2017-08-08T03:00:27.670Z,15.38
2017-08-08T03:01:36.980Z,15.32
2017-08-08T03:02:46.507Z,15.28
2017-08-08T03:03:56.357Z,15.29
2017-08-08T03:05:05.886Z,15.29
2017-08-08T03:06:16.058Z,15.25
2017-08-08T03:07:25.689Z,15.31
2017-08-08T03:08:35.218Z,15.32
2017-08-08T03:09:44.097Z,15.28
2017-08-08T03:10:53.301Z,15.27
2017-08-08T03:12:02.191Z,15.21
2017-08-08T03:13:11.594Z,15.31
2017-08-08T03:14:21.129Z,15.28
2017-08-08T03:15:30.672Z,15.25
2017-08-08T03:16:39.879Z,15.27
2017-08-08T03:17:49.408Z,15.23
2017-08-08T03:18:58.768Z,15.27
2017-08-08T03:20:08.306Z,15.28
2017-08-08T03:21:17.510Z,15.25
2017-08-08T03:22:26.409Z,15.21
2017-08-08T03:23:35.964Z,15.14
2017-08-08T03:24:44.952Z,15.16
2017-08-08T03:25:53.830Z,15.14
2017-08-08T03:27:03.360Z,15.14
2017-08-08T03:28:12.600Z,15.1
2017-08-08T03:29:21.803Z,15.16
2017-08-08T03:30:31.534Z,15.16
2017-08-08T03:31:41.070Z,15.14
2017-08-08T03:32:50.604Z,15.07
2017-08-08T03:34:00.464Z,15.14
2017-08-08T03:35:09.674Z,15.1
2017-08-08T03:36:18.940Z,15.09
2017-08-08T03:37:29.111Z,15.06
2017-08-08T03:38:37.995Z,15.03
2017-08-08T03:39:47.200Z,15.01
2017-08-08T03:40:56.080Z,15.01
2017-08-08T03:42:06.634Z,14.99
2017-08-08T03:43:15.874Z,14.95
2017-08-08T03:44:25.405Z,14.96
2017-08-08T03:45:34.935Z,14.96
2017-08-08T03:46:43.821Z,14.89
2017-08-08T03:47:53.417Z,14.98
2017-08-08T03:49:02.627Z,14.99
2017-08-08T03:50:12.808Z,14.99
2017-08-08T03:51:22.021Z,14.96
2017-08-08T03:52:31.232Z,14.96
2017-08-08T03:53:40.919Z,14.98
2017-08-08T03:54:50.448Z,14.99
2017-08-08T03:55:59.977Z,14.98
2017-08-08T03:57:09.510Z,14.98
2017-08-08T03:58:19.042Z,14.96
2017-08-08T03:59:28.969Z,15.02
2017-08-08T04:00:38.499Z,14.98
2017-08-08T04:01:47.705Z,15.02
2017-08-08T04:02:56.917Z,14.96
2017-08-08T04:04:06.458Z,14.96
2017-08-08T04:05:16.286Z,14.98
2017-08-08T04:06:25.492Z,15.03
2017-08-08T04:07:34.699Z,14.96
2017-08-08T04:08:44.226Z,14.95
2017-08-08T04:09:53.111Z,14.96
2017-08-08T04:11:02.798Z,15.03
2017-08-08T04:12:12.974Z,14.99
2017-08-08T04:13:22.503Z,15.01
2017-08-08T04:14:31.391Z,15.03
2017-08-08T04:15:40.918Z,15.01
2017-08-08T04:16:50.918Z,14.98
2017-08-08T04:17:59.814Z,15.09
2017-08-08T04:19:08.698Z,15.1
2017-08-08T04:20:18.565Z,15.11
2017-08-08T04:21:28.414Z,15.11
2017-08-08T04:22:37.358Z,15.13
2017-08-08T04:23:46.576Z,15.16
2017-08-08T04:24:56.436Z,15.11
2017-08-08T04:26:05.317Z,15.16
2017-08-08T04:27:14.521Z,15.23
2017-08-08T04:28:23.556Z,15.19
2017-08-08T04:29:33.096Z,15.21
2017-08-08T04:30:43.277Z,15.27
2017-08-08T04:31:52.483Z,15.25
2017-08-08T04:33:01.688Z,15.21
2017-08-08T04:34:11.566Z,15.25
2017-08-08T04:35:20.776Z,15.32
2017-08-08T04:36:29.990Z,15.21
2017-08-08T04:37:39.522Z,15.32
2017-08-08T04:38:49.046Z,15.31
2017-08-08T04:39:58.427Z,15.27
2017-08-08T04:41:07.633Z,15.21
2017-08-08T04:42:17.486Z,15.29
2017-08-08T04:43:27.028Z,15.25
2017-08-08T04:44:36.240Z,15.31
2017-08-08T04:45:45.130Z,15.27
2017-08-08T04:46:54.658Z,15.34
2017-08-08T04:48:04.188Z,15.36
2017-08-08T04:49:13.399Z,15.35
2017-08-08T04:50:22.930Z,15.41
2017-08-08T04:51:32.932Z,15.44
2017-08-08T04:52:42.471Z,15.36
2017-08-08T04:53:52.003Z,15.43
2017-08-08T04:55:01.857Z,15.41
2017-08-08T04:56:11.721Z,15.41
2017-08-08T04:57:21.078Z,15.49
2017-08-08T04:58:30.607Z,15.5
2017-08-08T04:59:39.488Z,15.5
2017-08-08T05:00:49.022Z,15.57
2017-08-08T05:01:58.885Z,15.51
2017-08-08T05:03:08.142Z,15.51
2017-08-08T05:04:17.682Z,15.53
2017-08-08T05:05:27.587Z,15.54
2017-08-08T05:06:36.802Z,15.54
2017-08-08T05:07:46.322Z,15.57
2017-08-08T05:08:55.529Z,15.56
2017-08-08T05:10:04.733Z,15.56
2017-08-08T05:11:13.998Z,15.67
2017-08-08T05:12:23.274Z,15.65
2017-08-08T05:13:33.129Z,15.67
2017-08-08T05:14:42.724Z,15.64
2017-08-08T05:15:52.269Z,15.67
2017-08-08T05:17:01.483Z,15.64
2017-08-08T05:18:11.345Z,15.65
2017-08-08T05:19:21.208Z,15.65
2017-08-08T05:20:30.745Z,15.72
2017-08-08T05:21:40.277Z,15.71
2017-08-08T05:22:49.494Z,15.71
2017-08-08T05:23:58.374Z,15.69
2017-08-08T05:25:07.909Z,15.78
2017-08-08T05:26:17.119Z,15.83
2017-08-08T05:27:26.324Z,15.8
2017-08-08T05:28:35.358Z,15.8
2017-08-08T05:29:44.568Z,15.86
2017-08-08T05:30:54.424Z,15.83
2017-08-08T05:32:04.279Z,15.84
2017-08-08T05:33:13.484Z,15.87
2017-08-08T05:34:22.945Z,16
2017-08-08T05:35:31.831Z,15.86
2017-08-08T05:36:41.045Z,15.94
2017-08-08T05:37:50.253Z,15.92
2017-08-08T05:38:59.457Z,15.94
2017-08-08T05:40:09.088Z,15.93
2017-08-08T05:41:18.620Z,15.93
2017-08-08T05:42:27.826Z,16.04
2017-08-08T05:43:37.045Z,15.97
2017-08-08T05:44:46.897Z,15.92
2017-08-08T05:45:56.854Z,16
2017-08-08T05:47:06.386Z,15.93
2017-08-08T05:48:15.594Z,16.07
2017-08-08T05:49:25.766Z,16.05
2017-08-08T05:50:34.650Z,16.01
2017-08-08T05:51:44.649Z,16.08
2017-08-08T05:52:54.825Z,16.08
2017-08-08T05:54:04.678Z,16.14
2017-08-08T05:55:13.886Z,16.12
2017-08-08T05:56:23.741Z,16.14
2017-08-08T05:57:33.098Z,16.24
2017-08-08T05:58:42.313Z,16.23
2017-08-08T05:59:51.849Z,16.17
2017-08-08T06:01:02.028Z,16.31
2017-08-08T06:02:11.885Z,16.31
2017-08-08T06:03:21.895Z,16.3
2017-08-08T06:04:31.104Z,16.34
2017-08-08T06:05:40.635Z,16.39
2017-08-08T06:06:50.170Z,16.41
2017-08-08T06:07:59.375Z,16.45
2017-08-08T06:09:09.022Z,16.35
2017-08-08T06:10:18.877Z,16.43
2017-08-08T06:11:28.731Z,16.45
2017-08-08T06:12:38.262Z,16.5
2017-08-08T06:13:48.109Z,16.45
2017-08-08T06:14:57.147Z,16.49
2017-08-08T06:16:07.001Z,16.6
2017-08-08T06:17:16.852Z,16.61
2017-08-08T06:18:26.392Z,16.53
2017-08-08T06:19:35.615Z,16.57
2017-08-08T06:20:44.870Z,16.68
2017-08-08T06:21:54.421Z,16.73
2017-08-08T06:23:03.319Z,16.68
2017-08-08T06:24:12.201Z,16.7
2017-08-08T06:25:22.382Z,16.7
2017-08-08T06:26:31.367Z,16.73
2017-08-08T06:27:41.228Z,16.76
2017-08-08T06:28:50.445Z,16.78
2017-08-08T06:29:59.654Z,16.78
2017-08-08T06:31:09.213Z,16.79
2017-08-08T06:32:18.475Z,16.78
2017-08-08T06:33:27.683Z,16.81
2017-08-08T06:34:36.893Z,16.86
2017-08-08T06:35:47.068Z,16.83
2017-08-08T06:36:56.274Z,16.88
2017-08-08T06:38:06.179Z,16.88
2017-08-08T06:39:15.708Z,16.89
2017-08-08T06:40:24.919Z,16.96
2017-08-08T06:41:34.449Z,16.88
2017-08-08T06:42:44.306Z,16.94
2017-08-08T06:43:53.890Z,16.94
2017-08-08T06:45:02.772Z,16.91
2017-08-08T06:46:12.024Z,16.94
2017-08-08T06:47:21.231Z,16.91
2017-08-08T06:48:30.493Z,16.98
2017-08-08T06:49:39.526Z,16.97
2017-08-08T06:50:48.414Z,16.98
2017-08-08T06:51:57.622Z,17.14
2017-08-08T06:53:07.153Z,17.06
2017-08-08T06:54:16.361Z,17.19
2017-08-08T06:55:25.445Z,17.18
2017-08-08T06:56:34.657Z,17.26
2017-08-08T06:57:44.509Z,17.3
2017-08-08T06:58:54.038Z,17.36
2017-08-08T07:00:02.919Z,17.41
2017-08-08T07:01:12.278Z,17.46
2017-08-08T07:02:22.135Z,17.59
2017-08-08T07:03:31.343Z,17.71
2017-08-08T07:04:40.894Z,17.66
2017-08-08T07:05:50.747Z,17.81
2017-08-08T07:07:00.431Z,17.86
2017-08-08T07:08:09.959Z,17.89
2017-08-08T07:09:19.489Z,17.93
2017-08-08T07:10:29.067Z,18.02
2017-08-08T07:11:37.953Z,17.99
2017-08-08T07:12:47.313Z,18.02
2017-08-08T07:13:56.529Z,18.15
2017-08-08T07:15:06.077Z,18.17
2017-08-08T07:16:15.288Z,18.23
2017-08-08T07:17:24.497Z,18.2
2017-08-08T07:18:34.283Z,18.26
2017-08-08T07:19:43.494Z,18.15
2017-08-08T07:20:53.035Z,18.15
2017-08-08T07:22:02.566Z,18.27
2017-08-08T07:23:12.429Z,18.3
2017-08-08T07:24:22.163Z,18.3
2017-08-08T07:25:32.014Z,18.42
2017-08-08T07:26:41.546Z,18.48
2017-08-08T07:27:51.399Z,18.45
2017-08-08T07:29:00.610Z,18.47
2017-08-08T07:30:10.346Z,18.52
2017-08-08T07:31:19.878Z,18.5
2017-08-08T07:32:29.089Z,18.54
2017-08-08T07:33:38.622Z,18.55
2017-08-08T07:34:47.831Z,18.62
2017-08-08T07:35:57.244Z,18.65
2017-08-08T07:37:07.097Z,18.6
2017-08-08T07:38:16.306Z,18.63
2017-08-08T07:39:25.852Z,18.62
2017-08-08T07:40:35.087Z,18.67
2017-08-08T07:41:45.342Z,18.8
2017-08-08T07:42:54.565Z,18.75
2017-08-08T07:44:04.097Z,18.87
2017-08-08T07:45:13.636Z,18.82
2017-08-08T07:46:22.522Z,18.85
2017-08-08T07:47:31.875Z,18.87
2017-08-08T07:48:41.092Z,18.84
2017-08-08T07:49:50.300Z,18.88
2017-08-08T07:50:59.507Z,18.84
2017-08-08T07:52:08.728Z,18.87
2017-08-08T07:53:18.093Z,18.95
2017-08-08T07:54:27.625Z,18.9
2017-08-08T07:55:36.833Z,18.91
2017-08-08T07:56:46.045Z,18.95
2017-08-08T07:57:55.901Z,19.07
2017-08-08T07:59:05.109Z,19.1
2017-08-08T08:00:14.319Z,19.11
2017-08-08T08:01:23.203Z,19.14
2017-08-08T08:02:33.056Z,19.08
2017-08-08T08:03:42.926Z,19.22
2017-08-08T08:04:51.959Z,19.22
2017-08-08T08:06:01.178Z,19.29
2017-08-08T08:07:10.388Z,19.33
2017-08-08T08:08:20.257Z,19.41
2017-08-08T08:09:29.467Z,19.46
2017-08-08T08:10:38.453Z,19.43
2017-08-08T08:11:47.990Z,19.4
2017-08-08T08:12:57.526Z,19.51
2017-08-08T08:14:06.740Z,19.43
2017-08-08T08:15:16.274Z,19.48
2017-08-08T08:16:25.257Z,19.46
2017-08-08T08:17:34.793Z,19.56
2017-08-08T08:18:44.649Z,19.58
2017-08-08T08:19:53.859Z,19.69
2017-08-08T08:21:03.439Z,19.65
2017-08-08T08:22:13.446Z,19.76
2017-08-08T08:23:23.299Z,19.71
2017-08-08T08:24:32.190Z,19.92
2017-08-08T08:25:41.404Z,19.91
2017-08-08T08:26:50.940Z,19.92
2017-08-08T08:28:00.027Z,19.92
2017-08-08T08:29:09.582Z,19.98
2017-08-08T08:30:18.802Z,19.99
2017-08-08T08:31:28.015Z,20.05
2017-08-08T08:32:37.542Z,20.14
2017-08-08T08:33:46.907Z,20.16
2017-08-08T08:34:56.119Z,20.18
2017-08-08T08:36:05.975Z,20.26
2017-08-08T08:37:15.192Z,20.31
2017-08-08T08:38:24.082Z,20.21
2017-08-08T08:39:33.397Z,20.29
2017-08-08T08:40:42.940Z,20.33
2017-08-08T08:41:52.478Z,20.35
2017-08-08T08:43:02.014Z,20.28
2017-08-08T08:44:11.549Z,20.39
2017-08-08T08:45:21.233Z,20.38
2017-08-08T08:46:30.775Z,20.43
2017-08-08T08:47:40.635Z,20.35
2017-08-08T08:48:50.490Z,20.47
2017-08-08T08:50:00.029Z,20.51
2017-08-08T08:51:09.340Z,20.52
2017-08-08T08:52:18.232Z,20.57
2017-08-08T08:53:27.121Z,20.64
2017-08-08T08:54:36.333Z,20.62
2017-08-08T08:55:45.545Z,20.55
2017-08-08T08:56:54.629Z,20.61
2017-08-08T08:58:04.769Z,20.67
2017-08-08T08:59:13.975Z,20.72
2017-08-08T09:00:23.512Z,20.69
2017-08-08T09:01:32.730Z,20.76
2017-08-08T09:02:42.319Z,20.82
2017-08-08T09:03:51.533Z,20.92
2017-08-08T09:05:00.756Z,20.97
2017-08-08T09:06:09.642Z,20.95
2017-08-08T09:07:18.853Z,20.92
2017-08-08T09:08:28.066Z,20.92
2017-08-08T09:09:37.279Z,20.98
2017-08-08T09:10:47.143Z,21.03
2017-08-08T09:11:56.350Z,21.03
2017-08-08T09:13:05.249Z,21.19
2017-08-08T09:14:15.285Z,21.19
2017-08-08T09:15:24.820Z,21.24
2017-08-08T09:16:34.031Z,21.25
2017-08-08T09:17:43.888Z,21.43
2017-08-08T09:18:53.103Z,21.42
2017-08-08T09:20:02.562Z,21.46
2017-08-08T09:21:11.773Z,21.44
2017-08-08T09:22:21.310Z,21.58
2017-08-08T09:23:30.522Z,21.65
2017-08-08T09:24:40.055Z,21.62
2017-08-08T09:25:49.192Z,21.67
2017-08-08T09:26:58.407Z,21.64
2017-08-08T09:28:07.946Z,21.61
2017-08-08T09:29:17.159Z,21.79
2017-08-08T09:30:26.696Z,21.74
2017-08-08T09:31:36.061Z,21.79
2017-08-08T09:32:45.276Z,21.8
2017-08-08T09:33:54.813Z,21.79
2017-08-08T09:35:04.029Z,21.86
2017-08-08T09:36:13.566Z,21.77
2017-08-08T09:37:23.148Z,21.91
2017-08-08T09:38:32.364Z,22.09
2017-08-08T09:39:41.577Z,22.06
2017-08-08T09:40:51.113Z,22.06
2017-08-08T09:42:00.650Z,22.06
2017-08-08T09:43:09.639Z,22.09
2017-08-08T09:44:18.848Z,22.12
2017-08-08T09:45:28.390Z,22.12
2017-08-08T09:46:37.924Z,22.24
2017-08-08T09:47:47.142Z,22.18
2017-08-08T09:48:56.333Z,22.24
2017-08-08T09:50:05.869Z,22.21
2017-08-08T09:51:15.084Z,22.31
2017-08-08T09:52:24.295Z,22.3
2017-08-08T09:53:33.833Z,22.37
2017-08-08T09:54:42.737Z,22.33
2017-08-08T09:55:51.949Z,22.39
2017-08-08T09:57:01.165Z,22.4
2017-08-08T09:58:10.702Z,22.43
2017-08-08T09:59:19.949Z,22.39
2017-08-08T10:00:29.909Z,22.43
2017-08-08T10:01:39.454Z,22.4
2017-08-08T10:02:48.671Z,22.4
2017-08-08T10:03:57.884Z,22.47
2017-08-08T10:05:06.769Z,22.46
2017-08-08T10:06:16.510Z,22.47
2017-08-08T10:07:25.724Z,22.54
2017-08-08T10:08:34.944Z,22.64
2017-08-08T10:09:43.836Z,22.61
2017-08-08T10:10:52.720Z,22.62
2017-08-08T10:12:01.663Z,22.65
2017-08-08T10:13:11.524Z,22.73
2017-08-08T10:14:20.742Z,22.61
2017-08-08T10:15:30.607Z,22.54
2017-08-08T10:16:40.145Z,22.58
2017-08-08T10:17:49.778Z,22.61
2017-08-08T10:18:59.648Z,22.52
2017-08-08T10:20:08.860Z,22.51
2017-08-08T10:21:18.391Z,22.46
2017-08-08T10:22:27.283Z,22.46
2017-08-08T10:23:37.020Z,22.49
2017-08-08T10:24:46.878Z,22.55
2017-08-08T10:25:56.414Z,22.64
2017-08-08T10:27:05.634Z,22.75
2017-08-08T10:28:15.177Z,22.72
2017-08-08T10:29:24.815Z,22.7
2017-08-08T10:30:33.702Z,22.76
2017-08-08T10:31:43.241Z,22.88
2017-08-08T10:32:53.107Z,22.9
2017-08-08T10:34:02.639Z,22.86
2017-08-08T10:35:12.284Z,22.8
2017-08-08T10:36:21.505Z,22.82
2017-08-08T10:37:30.726Z,22.88
2017-08-08T10:38:39.942Z,22.95
2017-08-08T10:39:49.151Z,22.94
2017-08-08T10:40:58.611Z,22.92
2017-08-08T10:42:08.150Z,22.94
2017-08-08T10:43:17.038Z,22.98
2017-08-08T10:44:26.914Z,22.92
2017-08-08T10:45:35.807Z,22.94
2017-08-08T10:46:45.118Z,22.94
2017-08-08T10:47:54.330Z,22.98
2017-08-08T10:49:03.869Z,23.15
2017-08-08T10:50:13.401Z,23.13
2017-08-08T10:51:23.582Z,23.17
2017-08-08T10:52:32.525Z,23.25
2017-08-08T10:53:42.385Z,23.32
2017-08-08T10:54:51.951Z,23.38
2017-08-08T10:56:01.185Z,23.22
2017-08-08T10:57:11.053Z,23.27
2017-08-08T10:58:21.166Z,23.19
2017-08-08T10:59:30.383Z,23.38
2017-08-08T11:00:39.598Z,23.28
2017-08-08T11:01:49.132Z,23.35
2017-08-08T11:02:58.676Z,23.43
2017-08-08T11:04:07.766Z,23.53
2017-08-08T11:05:17.298Z,23.4
2017-08-08T11:06:27.492Z,23.51
2017-08-08T11:07:37.674Z,23.39
2017-08-08T11:08:46.896Z,23.38
2017-08-08T11:09:56.122Z,23.4
2017-08-08T11:11:05.977Z,23.42
2017-08-08T11:12:14.868Z,23.51
2017-08-08T11:13:24.734Z,23.55
2017-08-08T11:14:33.949Z,23.48
2017-08-08T11:15:43.307Z,23.47
2017-08-08T11:16:52.847Z,23.4
2017-08-08T11:18:02.386Z,23.39
2017-08-08T11:19:11.276Z,23.4
2017-08-08T11:20:20.501Z,23.33
2017-08-08T11:21:29.920Z,23.39
2017-08-08T11:22:39.134Z,23.38
2017-08-08T11:23:48.673Z,23.5
2017-08-08T11:24:57.561Z,23.48
2017-08-08T11:26:06.779Z,23.5
2017-08-08T11:27:16.998Z,23.54
2017-08-08T11:28:26.537Z,23.53
2017-08-08T11:29:35.426Z,23.54
2017-08-08T11:30:44.331Z,23.65
2017-08-08T11:31:53.545Z,23.68
2017-08-08T11:33:03.232Z,23.51
2017-08-08T11:34:12.447Z,23.61
2017-08-08T11:35:21.985Z,23.57
2017-08-08T11:36:31.251Z,23.58
2017-08-08T11:37:40.793Z,23.69
2017-08-08T11:38:50.160Z,23.63
2017-08-08T11:40:00.017Z,23.58
2017-08-08T11:41:08.910Z,23.63
2017-08-08T11:42:17.823Z,23.69
2017-08-08T11:43:27.410Z,23.65
2017-08-08T11:44:36.703Z,23.63
2017-08-08T11:45:45.913Z,23.68
2017-08-08T11:46:55.124Z,23.63
2017-08-08T11:48:04.016Z,23.63
2017-08-08T11:49:12.902Z,23.65
2017-08-08T11:50:22.121Z,23.69
2017-08-08T11:51:31.656Z,23.6
2017-08-08T11:52:41.190Z,23.63
2017-08-08T11:53:50.733Z,23.58
2017-08-08T11:55:00.941Z,23.65
2017-08-08T11:56:11.101Z,23.6
2017-08-08T11:57:20.662Z,23.63
2017-08-08T11:58:30.245Z,23.78
2017-08-08T11:59:40.111Z,23.73
2017-08-08T12:00:49.646Z,23.69
2017-08-08T12:01:59.510Z,23.7
2017-08-08T12:03:09.398Z,23.7
2017-08-08T12:04:18.976Z,23.7
2017-08-08T12:05:28.187Z,23.61
2017-08-08T12:06:37.086Z,23.63
2017-08-08T12:07:46.983Z,23.61
2017-08-08T12:08:56.524Z,23.63
2017-08-08T12:10:05.745Z,23.6
2017-08-08T12:11:15.613Z,23.65
2017-08-08T12:12:25.149Z,23.69
2017-08-08T12:13:34.660Z,23.68
2017-08-08T12:14:44.214Z,23.72
2017-08-08T12:15:53.753Z,23.72
2017-08-08T12:17:03.286Z,23.7
2017-08-08T12:18:12.818Z,23.72
2017-08-08T12:19:22.609Z,23.7
2017-08-08T12:20:31.507Z,23.7
2017-08-08T12:21:40.423Z,23.76
2017-08-08T12:22:49.961Z,23.79
2017-08-08T12:23:59.178Z,23.75
2017-08-08T12:25:08.549Z,23.76
2017-08-08T12:26:17.438Z,23.78
2017-08-08T12:27:26.973Z,23.73
2017-08-08T12:28:36.509Z,23.73
2017-08-08T12:29:45.738Z,23.68
2017-08-08T12:30:55.473Z,23.65
2017-08-08T12:32:05.010Z,23.68
2017-08-08T12:33:14.552Z,23.66
2017-08-08T12:34:23.813Z,23.65
2017-08-08T12:35:33.901Z,23.65
2017-08-08T12:36:43.224Z,23.7
2017-08-08T12:37:52.775Z,23.69
2017-08-08T12:39:01.667Z,23.6
2017-08-08T12:40:11.527Z,23.6
2017-08-08T12:41:21.098Z,23.53
2017-08-08T12:42:30.185Z,23.54
2017-08-08T12:43:39.430Z,23.51
2017-08-08T12:44:48.388Z,23.57
2017-08-08T12:45:57.280Z,23.65
2017-08-08T12:47:06.175Z,23.58
2017-08-08T12:48:15.661Z,23.65
2017-08-08T12:49:25.254Z,23.58
2017-08-08T12:50:35.217Z,23.65
2017-08-08T12:51:44.150Z,23.54
2017-08-08T12:52:53.713Z,23.58
2017-08-08T12:54:03.740Z,23.57
2017-08-08T12:55:13.276Z,23.54
2017-08-08T12:56:22.816Z,23.54
2017-08-08T12:57:32.029Z,23.6
2017-08-08T12:58:40.923Z,23.48
2017-08-08T12:59:50.312Z,23.58
2017-08-08T13:00:59.274Z,23.47
2017-08-08T13:02:08.985Z,23.57
2017-08-08T13:03:17.878Z,23.6
2017-08-08T13:04:28.164Z,23.5
2017-08-08T13:05:37.208Z,23.61
2017-08-08T13:06:47.095Z,23.54
2017-08-08T13:07:56.543Z,23.53
2017-08-08T13:09:06.019Z,23.48
2017-08-08T13:10:15.953Z,23.48
2017-08-08T13:11:25.370Z,23.58
2017-08-08T13:12:34.906Z,23.5
2017-08-08T13:13:44.473Z,23.42
2017-08-08T13:14:53.688Z,23.38
2017-08-08T13:16:03.246Z,23.36
2017-08-08T13:17:12.811Z,23.38
2017-08-08T13:18:22.350Z,23.36
2017-08-08T13:19:31.251Z,23.39
2017-08-08T13:20:41.109Z,23.33
2017-08-08T13:21:50.646Z,23.22
2017-08-08T13:23:00.182Z,23.22
2017-08-08T13:24:09.720Z,23.23
2017-08-08T13:25:19.580Z,23.22
2017-08-08T13:26:28.813Z,23.13
2017-08-08T13:27:38.347Z,23.16
2017-08-08T13:28:47.939Z,23.23
2017-08-08T13:29:58.135Z,23.2
2017-08-08T13:31:07.351Z,23.19
2017-08-08T13:32:17.215Z,23.2
2017-08-08T13:33:26.439Z,23.16
2017-08-08T13:34:35.718Z,23.17
2017-08-08T13:35:45.592Z,23.17
2017-08-08T13:36:55.806Z,23.07
2017-08-08T13:38:05.344Z,23.1
2017-08-08T13:39:15.216Z,23.04
2017-08-08T13:40:24.886Z,23.09
2017-08-08T13:41:33.779Z,23.1
2017-08-08T13:42:43.322Z,23.01
2017-08-08T13:43:52.863Z,23.01
2017-08-08T13:45:02.397Z,23.02
2017-08-08T13:46:12.341Z,23.01
2017-08-08T13:47:21.885Z,23.04
2017-08-08T13:48:31.742Z,22.95
2017-08-08T13:49:41.286Z,22.94
2017-08-08T13:50:51.156Z,22.95
2017-08-08T13:52:00.754Z,22.94
2017-08-08T13:53:09.973Z,22.9
2017-08-08T13:54:19.510Z,22.95
2017-08-08T13:55:29.372Z,22.91
2017-08-08T13:56:38.592Z,22.9
2017-08-08T13:57:48.642Z,22.98
2017-08-08T13:58:57.875Z,22.8
2017-08-08T14:00:08.062Z,22.85
2017-08-08T14:01:17.933Z,22.82
2017-08-08T14:02:28.132Z,22.77
2017-08-08T14:03:37.818Z,22.79
2017-08-08T14:04:47.035Z,22.68
2017-08-08T14:05:56.577Z,22.76
2017-08-08T14:07:06.772Z,22.72
2017-08-08T14:08:15.989Z,22.7
2017-08-08T14:09:25.850Z,22.72
2017-08-08T14:10:35.715Z,22.75
2017-08-08T14:11:45.902Z,22.75
2017-08-08T14:12:55.148Z,22.54
2017-08-08T14:14:04.694Z,22.64
2017-08-08T14:15:14.940Z,22.57
2017-08-08T14:16:24.484Z,22.64
2017-08-08T14:17:34.347Z,22.65
2017-08-08T14:18:44.228Z,22.72
2017-08-08T14:19:53.807Z,22.76
2017-08-08T14:21:03.991Z,22.79
2017-08-08T14:22:13.202Z,22.72
2017-08-08T14:23:22.412Z,22.76
2017-08-08T14:24:31.954Z,22.76
2017-08-08T14:25:41.490Z,22.68
2017-08-08T14:26:50.953Z,22.64
2017-08-08T14:28:00.162Z,22.73
2017-08-08T14:29:09.698Z,22.7
2017-08-08T14:30:18.909Z,22.68
2017-08-08T14:31:28.772Z,22.7
2017-08-08T14:32:38.134Z,22.61
2017-08-08T14:33:47.025Z,22.68
2017-08-08T14:34:56.883Z,22.6
2017-08-08T14:36:06.095Z,22.58
2017-08-08T14:37:15.312Z,22.58
2017-08-08T14:38:25.184Z,22.57
2017-08-08T14:39:34.743Z,22.55
2017-08-08T14:40:44.603Z,22.49
2017-08-08T14:41:54.137Z,22.45
2017-08-08T14:43:04.001Z,22.47
2017-08-08T14:44:13.211Z,22.47
2017-08-08T14:45:23.091Z,22.51
2017-08-08T14:46:31.981Z,22.49
2017-08-08T14:47:40.888Z,22.57
2017-08-08T14:48:50.117Z,22.57
2017-08-08T14:49:59.328Z,22.49
2017-08-08T14:51:08.222Z,22.51
2017-08-08T14:52:18.108Z,22.46
2017-08-08T14:53:27.645Z,22.47
2017-08-08T14:54:36.862Z,22.46
2017-08-08T14:55:46.402Z,22.43
2017-08-08T14:56:56.292Z,22.37
2017-08-08T14:58:05.516Z,22.25